Погода Сарафовона неделю

Бургас, Болгария

15 - 21 июля
  • 15июля
    Сегодня
    +22°
    +31°
    Облачно с прояснениями
    ВремяПогодаТемператураВлажностьДавлениеВетер, м/сВероятность осадков
    00:00Ясно и безоблачно+24°C75 %757 мм1.2 м/с2 %
    03:00Ясно и безоблачно+21°C73 %756 мм1.5 м/с2 %
    06:00Ясно и безоблачно+19°C73 %756 мм2.6 м/с2 %
    09:00Облачно с прояснениями+23°C42 %757 мм1.5 м/с2 %
    12:00Ясно и безоблачно+31°C32 %757 мм6.3 м/с2 %
    15:00Облачно с прояснениями+30°C34 %756 мм10.8 м/с2 %
    18:00Ясно и безоблачно+29°C56 %756 мм9.6 м/с2 %
    21:00Ясно и безоблачно+27°C80 %756 мм4.8 м/с2 %
  • 16июля
    Вторник
    +24°
    +33°
    Практически безоблачно
    ВремяПогодаТемператураВлажностьДавлениеВетер, м/сВероятность осадков
    00:00Ясно и безоблачно+25°C84 %756 мм1.5 м/с2 %
    03:00Облачно с прояснениями+24°C81 %756 мм1.8 м/с2 %
    06:00Облачно с прояснениями+23°C66 %755 мм2.5 м/с2 %
    09:00Облачно с прояснениями+28°C44 %756 мм2.4 м/с1 %
    12:00Облачно с прояснениями+32°C40 %756 мм6.0 м/с2 %
    15:00Практически безоблачно+31°C46 %755 мм9.9 м/с3 %
    18:00Практически безоблачно+30°C53 %755 мм9.0 м/с2 %
    21:00Ясно и безоблачно+29°C68 %755 мм5.0 м/с2 %
  • 17июля
    Среда
    +24°
    +34°
    Ясно и безоблачно
    ВремяПогодаТемператураВлажностьДавлениеВетер, м/сВероятность осадков
    00:00Ясно и безоблачно+26°C79 %756 мм0.5 м/с2 %
    03:00Ясно и безоблачно+26°C77 %756 мм1.9 м/с2 %
    06:00Ясно и безоблачно+24°C77 %756 мм2.4 м/с2 %
    09:00Ясно и безоблачно+29°C49 %756 мм1.9 м/с2 %
    12:00Ясно и безоблачно+34°C42 %757 мм5.3 м/с2 %
    15:00Ясно и безоблачно+31°C43 %757 мм9.9 м/с6 %
    18:00Ясно и безоблачно+32°C44 %756 мм8.9 м/с2 %
    21:00Ясно и безоблачно+30°C57 %757 мм4.6 м/с2 %
  • 18июля
    Четверг
    +25°
    +33°
    Небольшая облачность
    ВремяПогодаТемператураВлажностьДавлениеВетер, м/сВероятность осадков
    00:00Ясно и безоблачно+27°C76 %757 мм0.6 м/с2 %
    03:00Ясно и безоблачно+26°C74 %757 мм2.3 м/с2 %
    06:00Ясно и безоблачно+24°C73 %757 мм1.9 м/с2 %
    09:00Ясно и безоблачно+29°C41 %758 мм0.5 м/с2 %
    12:00Практически безоблачно+33°C37 %758 мм4.9 м/с2 %
    15:00Небольшая облачность+32°C41 %757 мм9.5 м/с3 %
    18:00Небольшая облачность+31°C47 %757 мм8.9 м/с4 %
    21:00Практически безоблачно+31°C57 %757 мм5.1 м/с2 %
  • 19июля
    Пятница
    +24°
    +31°
    Облачно с прояснениями, небольшой дождь
    ВремяПогодаТемператураВлажностьДавлениеВетер, м/сВероятность осадков
    00:00Ясно и безоблачно+28°C59 %758 мм1.3 м/с2 %
    03:00Ясно и безоблачно+28°C63 %757 мм1.5 м/с2 %
    06:00Ясно и безоблачно+26°C64 %757 мм1.8 м/с2 %
    09:00Ясно и безоблачно+28°C56 %758 мм3.2 м/с2 %
    12:00Практически безоблачно+31°C51 %757 мм5.3 м/с13 %
    15:00Облачно с прояснениями, небольшой дождь+29°C58 %756 мм8.1 м/с53 %
    18:00Облачно с прояснениями+28°C69 %756 мм8.2 м/с39 %
    21:00Облачно с прояснениями+28°C74 %756 мм4.8 м/с4 %
Мы используем cookies
Соглашаюсь